createdAt,value
2023-02-03T00:05:00.627Z,12.10
2023-02-03T00:10:06.406Z,9.90
2023-02-03T00:15:11.950Z,11.90
2023-02-03T00:20:16.227Z,12.10
2023-02-03T00:25:21.946Z,13.20
2023-02-03T00:30:25.711Z,11.50
2023-02-03T00:35:30.281Z,12.40
2023-02-03T00:40:35.653Z,17.50
2023-02-03T00:45:40.553Z,16.40
2023-02-03T00:50:47.718Z,14.20
2023-02-03T00:55:53.004Z,16.30
2023-02-03T01:00:58.204Z,16.40
2023-02-03T01:06:20.456Z,13.70
2023-02-03T01:11:27.573Z,19.10
2023-02-03T01:16:36.315Z,17.90
2023-02-03T01:21:42.042Z,13.40
2023-02-03T01:26:46.804Z,13.20
2023-02-03T01:31:51.656Z,14.00
2023-02-03T01:36:55.744Z,17.30
2023-02-03T01:42:00.088Z,17.50
2023-02-03T01:47:07.250Z,17.50
2023-02-03T01:52:12.297Z,20.00
2023-02-03T01:57:27.225Z,19.40
2023-02-03T02:02:32.547Z,21.90
2023-02-03T02:07:37.697Z,24.20
2023-02-03T02:12:42.890Z,21.80
2023-02-03T02:18:17.051Z,18.30
2023-02-03T02:23:54.228Z,23.10
2023-02-03T02:29:18.744Z,19.10
2023-02-03T02:35:03.906Z,24.30
2023-02-03T02:41:25.666Z,19.20
2023-02-03T02:46:55.026Z,19.40
2023-02-03T02:53:30.301Z,19.20
2023-02-03T02:59:25.750Z,19.50
2023-02-03T03:05:40.758Z,22.00
2023-02-03T03:12:06.037Z,16.80
2023-02-03T03:18:16.668Z,16.70
2023-02-03T03:24:39.941Z,18.10
2023-02-03T03:31:08.628Z,22.70
2023-02-03T03:37:34.799Z,19.80
2023-02-03T03:50:29.814Z,19.30
2023-02-03T03:56:54.297Z,24.00
2023-02-03T04:02:52.091Z,17.70
2023-02-03T04:08:45.436Z,16.70
2023-02-03T04:15:10.898Z,15.40
2023-02-03T04:21:12.662Z,24.40
2023-02-03T04:27:29.296Z,14.20
2023-02-03T04:33:50.875Z,20.50
2023-02-03T04:44:54.456Z,17.90
2023-02-03T04:50:01.702Z,16.70
2023-02-03T04:56:10.319Z,12.10
2023-02-03T05:02:37.449Z,18.30
2023-02-03T05:08:48.537Z,15.40
2023-02-03T05:15:14.444Z,10.40
2023-02-03T05:21:35.368Z,10.40
2023-02-03T05:27:54.824Z,28.90
2023-02-03T05:34:12.705Z,13.10
2023-02-03T05:40:28.675Z,12.30
2023-02-03T05:46:48.297Z,13.70
2023-02-03T05:52:57.937Z,12.20
2023-02-03T05:59:13.694Z,11.50
2023-02-03T06:05:15.362Z,10.90
2023-02-03T06:11:33.674Z,14.80
2023-02-03T06:17:23.650Z,17.40
2023-02-03T06:23:21.185Z,25.00
2023-02-03T06:29:47.097Z,27.00
2023-02-03T06:35:31.859Z,14.40
2023-02-03T06:41:57.425Z,13.90
2023-02-03T06:48:22.970Z,13.90
2023-02-03T06:54:12.736Z,16.50
2023-02-03T07:00:37.923Z,16.20
2023-02-03T07:06:44.052Z,12.60
2023-02-03T07:13:09.876Z,15.60
2023-02-03T07:19:28.589Z,13.20
2023-02-03T07:25:56.104Z,11.80
2023-02-03T07:32:20.792Z,10.90
2023-02-03T07:38:36.575Z,10.70
2023-02-03T07:45:02.198Z,10.50
2023-02-03T07:51:08.241Z,8.50
2023-02-03T07:57:34.320Z,9.60
2023-02-03T08:04:00.129Z,11.70
2023-02-03T08:10:26.324Z,8.60
2023-02-03T08:16:51.319Z,7.10
2023-02-03T08:22:57.633Z,6.40
2023-02-03T08:28:57.835Z,8.70
2023-02-03T08:34:45.482Z,9.10
2023-02-03T08:40:06.185Z,9.00
2023-02-03T08:45:12.454Z,9.30
2023-02-03T08:50:26.675Z,8.40
2023-02-03T08:55:35.009Z,10.80
2023-02-03T09:00:39.845Z,13.30
2023-02-03T09:06:48.415Z,23.00
2023-02-03T09:13:14.209Z,14.00
2023-02-03T09:19:26.795Z,12.50
2023-02-03T09:25:51.648Z,8.10
2023-02-03T09:32:18.367Z,8.80
2023-02-03T09:38:43.413Z,9.40
2023-02-03T09:45:10.884Z,10.60
2023-02-03T09:51:41.964Z,10.60
2023-02-03T09:58:08.789Z,10.30
2023-02-03T10:04:40.907Z,12.20
2023-02-03T10:11:11.355Z,13.50
2023-02-03T10:18:30.353Z,12.20
2023-02-03T10:24:30.497Z,13.00
2023-02-03T10:30:55.478Z,12.40
2023-02-03T10:37:24.902Z,9.20
2023-02-03T10:44:09.194Z,13.70
2023-02-03T10:50:39.117Z,11.40
2023-02-03T10:57:10.631Z,14.30
2023-02-03T11:02:36.409Z,13.80
2023-02-03T11:08:22.129Z,14.20
2023-02-03T11:14:17.529Z,15.40
2023-02-03T11:20:32.840Z,14.90
2023-02-03T11:26:59.084Z,22.10
2023-02-03T11:33:24.112Z,22.10
2023-02-03T11:40:08.620Z,12.20
2023-02-03T11:53:56.949Z,10.60
2023-02-03T12:00:24.251Z,7.90
2023-02-03T12:07:05.692Z,7.90
2023-02-03T12:20:27.491Z,4.10
2023-02-03T12:32:37.511Z,3.10
2023-02-03T12:56:06.319Z,5.90
2023-02-03T13:01:21.430Z,3.60
2023-02-03T13:06:46.578Z,2.90
2023-02-03T13:11:54.913Z,3.40
2023-02-03T13:17:04.343Z,3.90
2023-02-03T13:22:13.474Z,5.00
2023-02-03T13:28:01.926Z,3.20
2023-02-03T13:33:08.500Z,4.60
2023-02-03T13:38:58.365Z,5.00
2023-02-03T13:44:01.174Z,4.60
2023-02-03T13:49:05.607Z,5.10
2023-02-03T13:54:16.137Z,3.40
2023-02-03T13:59:38.507Z,6.30
2023-02-03T14:04:48.080Z,3.50
2023-02-03T14:10:33.644Z,5.90
2023-02-03T14:15:39.900Z,4.00
2023-02-03T14:20:49.591Z,5.50
2023-02-03T14:25:56.712Z,5.20
2023-02-03T14:31:18.507Z,5.40
2023-02-03T14:36:53.500Z,6.80
2023-02-03T14:42:10.723Z,9.70
2023-02-03T14:47:28.471Z,11.00
2023-02-03T14:53:01.171Z,6.50
2023-02-03T14:58:18.201Z,7.50
2023-02-03T15:03:25.762Z,8.30
2023-02-03T15:08:53.397Z,10.90
2023-02-03T15:14:19.616Z,13.20
2023-02-03T15:19:28.529Z,10.40
2023-02-03T15:24:37.490Z,19.10
2023-02-03T15:29:41.372Z,12.40
2023-02-03T15:34:51.853Z,12.20
2023-02-03T15:40:21.228Z,16.70
2023-02-03T15:45:52.379Z,12.00
2023-02-03T15:51:06.919Z,15.60
2023-02-03T15:56:20.793Z,13.80
2023-02-03T16:01:29.266Z,18.90
2023-02-03T16:06:48.558Z,19.90
2023-02-03T16:12:17.681Z,16.20
2023-02-03T16:17:45.527Z,13.40
2023-02-03T16:23:20.901Z,15.50
2023-02-03T16:28:43.641Z,12.90
2023-02-03T16:34:12.236Z,10.40
2023-02-03T16:39:35.854Z,8.10
2023-02-03T16:45:03.535Z,14.70
2023-02-03T16:50:38.634Z,7.80
2023-02-03T16:55:48.792Z,11.70
2023-02-03T17:00:57.289Z,14.20
2023-02-03T17:06:10.573Z,13.60
2023-02-03T17:11:22.516Z,17.30
2023-02-03T17:16:28.672Z,23.60
2023-02-03T17:21:37.174Z,20.70
2023-02-03T17:26:46.092Z,22.60
2023-02-03T17:31:51.349Z,20.90
2023-02-03T17:36:59.455Z,19.60
2023-02-03T17:58:10.522Z,22.40
2023-02-03T18:03:18.014Z,22.20
2023-02-03T18:08:25.330Z,19.50
2023-02-03T18:13:41.493Z,21.00
2023-02-03T18:18:49.230Z,24.70
2023-02-03T18:24:00.844Z,22.50
2023-02-03T18:29:07.775Z,21.20
2023-02-03T18:34:13.832Z,22.70
2023-02-03T18:39:18.666Z,20.10
2023-02-03T18:44:26.770Z,25.00
2023-02-03T18:49:34.182Z,31.40
2023-02-03T18:54:47.517Z,26.00
2023-02-03T19:00:04.871Z,17.90
2023-02-03T19:05:13.089Z,24.80
2023-02-03T19:15:29.954Z,21.10
2023-02-03T19:20:37.894Z,15.00
2023-02-03T19:25:46.808Z,20.70
2023-02-03T19:31:02.840Z,26.50
2023-02-03T19:36:14.559Z,22.50
2023-02-03T19:41:22.908Z,14.80
2023-02-03T19:46:34.050Z,19.50
2023-02-03T19:51:49.608Z,17.70
2023-02-03T19:56:58.835Z,19.00
2023-02-03T20:02:13.678Z,16.70
2023-02-03T20:07:19.094Z,18.30
2023-02-03T20:12:24.715Z,15.90
2023-02-03T20:17:34.328Z,25.00
2023-02-03T20:22:41.519Z,17.90
2023-02-03T20:27:49.171Z,21.70
2023-02-03T20:32:58.397Z,18.20
2023-02-03T20:38:07.226Z,20.20
2023-02-03T20:43:27.403Z,21.10
2023-02-03T20:48:35.360Z,22.00
2023-02-03T20:53:45.449Z,16.40
2023-02-03T20:58:53.329Z,21.70
2023-02-03T21:04:16.839Z,11.80
2023-02-03T21:09:26.284Z,26.00
2023-02-03T21:14:43.780Z,18.30
2023-02-03T21:19:52.938Z,19.80
2023-02-03T21:25:00.940Z,13.00
2023-02-03T21:30:34.046Z,20.90
2023-02-03T21:35:50.581Z,14.80
2023-02-03T21:40:57.070Z,18.00
2023-02-03T21:46:06.344Z,15.10
2023-02-03T21:51:47.453Z,19.90
2023-02-03T21:56:55.026Z,17.60
2023-02-03T22:01:59.921Z,17.10
2023-02-03T22:07:16.011Z,15.20
2023-02-03T22:12:20.655Z,18.00
2023-02-03T22:17:24.409Z,14.80
2023-02-03T22:22:31.338Z,14.40
2023-02-03T22:27:35.237Z,16.90
2023-02-03T22:32:44.702Z,11.80
2023-02-03T22:37:48.527Z,13.30
2023-02-03T22:42:53.688Z,14.60
2023-02-03T22:48:07.412Z,10.50
2023-02-03T22:53:20.752Z,8.70
2023-02-03T22:58:36.203Z,7.40
2023-02-03T23:03:50.157Z,10.10
2023-02-03T23:09:00.822Z,8.40
2023-02-03T23:14:05.527Z,9.20
2023-02-03T23:19:12.575Z,7.50
2023-02-03T23:24:23.439Z,8.80
2023-02-03T23:29:27.696Z,12.50
2023-02-03T23:34:50.997Z,7.30
2023-02-03T23:39:54.976Z,5.90
2023-02-03T23:45:00.400Z,5.10
2023-02-03T23:50:04.509Z,2.80
2023-02-03T23:55:14.006Z,3.20
